This is the latest recevied weather packets stored in our database for station/object N9EA. If no packets are shown the sender has not sent any weather packets the latest 10 day(s).
| Time | Temp. | Humidity | Pressure | Rain* | Wind** | Luminosity | Snow |
|---|---|---|---|---|---|---|---|
| 1777929961 | 26.11° C | 38% | 997.6 hPa | 0 mm | - | 498 W/m² | - |
| 1777929658 | 26.11° C | 40% | 997.6 hPa | 0 mm | - | 491 W/m² | - |
| 1777929355 | 26.67° C | 37% | 998 hPa | 0 mm | - | 198 W/m² | - |
| 1777929051 | 26.67° C | 35% | 997.7 hPa | 0 mm | - | 97 W/m² | - |
| 1777928749 | 26.67° C | 33% | 997.7 hPa | 0 mm | - | 104 W/m² | - |
| 1777928445 | 26.67° C | 33% | 997.8 hPa | 0 mm | - | 142 W/m² | - |
| 1777928143 | 27.22° C | 33% | 997.7 hPa | 0 mm | - | 76 W/m² | - |
| 1777927841 | 27.78° C | 33% | 997.6 hPa | 0 mm | - | 88 W/m² | - |
| 1777927539 | 28.89° C | 31% | 997.7 hPa | 0 mm | - | 364 W/m² | - |
| 1777927238 | 28.33° C | 32% | 997.7 hPa | 0 mm | - | 538 W/m² | - |
| 1777926935 | 27.78° C | 32% | 998 hPa | 0 mm | - | 227 W/m² | - |
| 1777926633 | 28.33° C | 33% | 998 hPa | 0 mm | - | 175 W/m² | - |
| 1777926328 | 28.89° C | 32% | 997.9 hPa | 0 mm | - | 640 W/m² | - |
| 1777926025 | 28.89° C | 33% | 998.2 hPa | 0 mm | - | 670 W/m² | - |
| 1777925722 | 28.33° C | 33% | 998.1 hPa | 0 mm | - | 679 W/m² | - |
| 1777925420 | 27.78° C | 36% | 998.4 hPa | 0 mm | - | 325 W/m² | - |
| 1777925116 | 27.78° C | 34% | 998.3 hPa | 0 mm | - | 556 W/m² | - |
| 1777924813 | 27.22° C | 34% | 998.4 hPa | 0 mm | - | 315 W/m² | - |
| 1777924509 | 27.78° C | 36% | 998.5 hPa | 0 mm | - | 254 W/m² | - |
| 1777924205 | 27.78° C | 34% | 998.4 hPa | 0 mm | - | 246 W/m² | - |
| 1777923901 | 27.78° C | 35% | 998.5 hPa | 0 mm | - | 710 W/m² | - |
| 1777923597 | 26.67° C | 35% | 998.6 hPa | 0 mm | - | 722 W/m² | - |
| 1777899829 | 15° C | 60% | 1002.6 hPa | 0 mm | - | 171 W/m² | - |
| 1777899525 | 15° C | 60% | 1002.6 hPa | 0 mm | - | 171 W/m² | - |
| 1777899223 | 15° C | 61% | 1002.4 hPa | 0 mm | - | 167 W/m² | - |
* Rain latest hour (hover to see other rain measurements)
** Current wind speed in m/s (hover to see current wind gust speed)